createdAt,value
2022-09-28T00:00:33.577Z,99.90
2022-09-28T00:03:01.037Z,99.90
2022-09-28T00:05:28.807Z,99.90
2022-09-28T00:07:56.877Z,99.90
2022-09-28T00:10:24.609Z,99.90
2022-09-28T00:12:52.266Z,99.90
2022-09-28T00:15:20.097Z,99.90
2022-09-28T00:17:47.521Z,99.90
2022-09-28T00:20:16.726Z,99.90
2022-09-28T00:22:44.003Z,99.90
2022-09-28T00:25:12.213Z,99.90
2022-09-28T00:27:40.340Z,99.90
2022-09-28T00:30:08.304Z,99.90
2022-09-28T00:32:36.104Z,99.90
2022-09-28T00:35:03.670Z,99.90
2022-09-28T00:37:31.100Z,99.90
2022-09-28T00:39:58.925Z,99.90
2022-09-28T00:42:26.762Z,99.90
2022-09-28T00:44:55.250Z,99.90
2022-09-28T00:47:41.955Z,99.90
2022-09-28T00:50:10.107Z,99.90
2022-09-28T00:52:57.817Z,99.90
2022-09-28T00:55:35.990Z,99.90
2022-09-28T00:58:05.467Z,99.90
2022-09-28T01:00:33.061Z,99.90
2022-09-28T01:03:00.703Z,99.90
2022-09-28T01:05:28.335Z,99.90
2022-09-28T01:07:56.378Z,99.90
2022-09-28T01:10:24.409Z,99.90
2022-09-28T01:12:51.860Z,99.90
2022-09-28T01:15:22.230Z,99.90
2022-09-28T01:17:52.755Z,99.90
2022-09-28T01:20:32.667Z,99.90
2022-09-28T01:23:17.691Z,99.90
2022-09-28T01:25:55.749Z,99.90
2022-09-28T01:28:28.565Z,99.90
2022-09-28T01:30:56.218Z,99.90
2022-09-28T01:33:27.395Z,99.90
2022-09-28T01:36:02.814Z,99.90
2022-09-28T01:38:34.115Z,99.90
2022-09-28T01:41:03.639Z,99.90
2022-09-28T01:43:32.893Z,99.90
2022-09-28T01:46:08.430Z,99.90
2022-09-28T01:48:39.461Z,99.90
2022-09-28T01:51:11.206Z,99.90
2022-09-28T01:53:43.718Z,99.90
2022-09-28T01:56:23.307Z,99.90
2022-09-28T01:58:56.556Z,99.90
2022-09-28T02:01:29.426Z,99.90
2022-09-28T02:04:12.453Z,99.90
2022-09-28T02:06:52.447Z,99.90
2022-09-28T02:09:23.579Z,99.90
2022-09-28T02:11:55.277Z,99.90
2022-09-28T02:14:23.505Z,99.90
2022-09-28T02:16:54.703Z,99.90
2022-09-28T02:19:28.458Z,99.90
2022-09-28T02:22:03.555Z,99.90
2022-09-28T02:24:37.902Z,99.90
2022-09-28T02:27:15.410Z,99.90
2022-09-28T02:29:43.127Z,99.90
2022-09-28T02:32:10.800Z,99.90
2022-09-28T02:34:38.175Z,99.90
2022-09-28T02:37:07.076Z,99.90
2022-09-28T02:39:34.357Z,99.90
2022-09-28T02:42:02.646Z,99.90
2022-09-28T02:44:40.118Z,99.90
2022-09-28T02:47:10.913Z,99.90
2022-09-28T02:49:41.506Z,99.90
2022-09-28T02:52:15.602Z,99.90
2022-09-28T02:54:52.625Z,99.90
2022-09-28T02:57:31.639Z,99.90
2022-09-28T03:00:08.165Z,99.90
2022-09-28T03:02:51.423Z,99.90
2022-09-28T03:05:38.164Z,99.90
2022-09-28T03:08:25.817Z,99.90
2022-09-28T03:10:59.541Z,99.90
2022-09-28T03:13:28.566Z,99.90
2022-09-28T03:16:15.983Z,99.90
2022-09-28T03:18:45.908Z,99.90
2022-09-28T03:21:14.049Z,99.90
2022-09-28T03:23:42.212Z,99.90
2022-09-28T03:26:13.088Z,99.90
2022-09-28T03:28:40.661Z,99.90
2022-09-28T03:31:12.133Z,99.90
2022-09-28T03:33:39.564Z,99.90
2022-09-28T03:36:09.186Z,99.90
2022-09-28T03:38:38.179Z,99.90
2022-09-28T03:41:08.068Z,99.90
2022-09-28T03:43:37.805Z,99.90
2022-09-28T03:46:06.108Z,99.90
2022-09-28T03:48:39.998Z,99.90
2022-09-28T03:51:10.546Z,99.90
2022-09-28T03:53:39.885Z,99.90
2022-09-28T03:56:09.145Z,99.90
2022-09-28T03:58:36.898Z,99.90
2022-09-28T04:01:14.174Z,99.90
2022-09-28T04:03:45.830Z,99.90
2022-09-28T04:06:13.815Z,99.90
2022-09-28T04:08:41.200Z,99.90
2022-09-28T04:11:09.850Z,99.90
2022-09-28T04:13:37.470Z,99.90
2022-09-28T04:16:07.754Z,99.90
2022-09-28T04:18:36.923Z,99.90
2022-09-28T04:21:42.714Z,99.90
2022-09-28T04:24:13.553Z,99.90
2022-09-28T04:26:41.230Z,99.90
2022-09-28T04:29:16.767Z,99.90
2022-09-28T04:31:56.159Z,99.90
2022-09-28T04:34:44.555Z,99.90
2022-09-28T04:37:12.809Z,99.90
2022-09-28T04:39:45.017Z,99.90
2022-09-28T04:42:17.582Z,99.90
2022-09-28T04:44:45.411Z,99.90
2022-09-28T04:47:13.595Z,99.90
2022-09-28T04:49:59.491Z,99.90
2022-09-28T04:52:35.902Z,99.90
2022-09-28T04:55:03.945Z,99.90
2022-09-28T04:57:34.184Z,99.90
2022-09-28T05:00:01.997Z,99.90
2022-09-28T05:02:31.830Z,99.90
2022-09-28T05:05:18.198Z,99.90
2022-09-28T05:08:05.093Z,99.90
2022-09-28T05:10:32.586Z,99.90
2022-09-28T05:13:01.555Z,99.90
2022-09-28T05:15:29.384Z,99.90
2022-09-28T05:17:56.817Z,99.90
2022-09-28T05:20:48.160Z,99.90
2022-09-28T05:23:15.739Z,99.90
2022-09-28T05:25:45.495Z,99.90
2022-09-28T05:28:27.292Z,99.90
2022-09-28T05:31:13.590Z,99.90
2022-09-28T05:34:13.155Z,99.90
2022-09-28T05:36:42.836Z,99.90
2022-09-28T05:39:10.379Z,99.90
2022-09-28T05:41:38.048Z,99.90
2022-09-28T05:44:06.086Z,99.90
2022-09-28T05:46:35.227Z,99.90
2022-09-28T05:49:02.870Z,99.90
2022-09-28T05:51:30.422Z,99.90
2022-09-28T05:54:01.846Z,99.90
2022-09-28T05:56:33.071Z,99.90
2022-09-28T05:59:05.545Z,99.90
2022-09-28T06:01:33.022Z,99.90
2022-09-28T06:04:02.219Z,99.90
2022-09-28T06:06:30.033Z,99.90
2022-09-28T06:08:57.563Z,99.90
2022-09-28T06:11:42.245Z,99.90
2022-09-28T06:14:19.270Z,99.90
2022-09-28T06:16:47.447Z,99.90
2022-09-28T06:19:15.058Z,99.90
2022-09-28T06:21:53.685Z,99.90
2022-09-28T06:24:21.555Z,99.60
2022-09-28T06:26:49.068Z,99.90
2022-09-28T06:29:19.862Z,93.10
2022-09-28T06:31:48.226Z,81.30
2022-09-28T06:34:16.169Z,70.30
2022-09-28T06:36:45.388Z,66.80
2022-09-28T06:39:12.939Z,60.50
2022-09-28T06:41:41.566Z,57.40
2022-09-28T06:44:17.734Z,55.00
2022-09-28T06:47:04.029Z,57.20
2022-09-28T06:49:55.884Z,54.20
2022-09-28T06:52:41.673Z,49.40
2022-09-28T06:55:25.225Z,47.90
2022-09-28T06:58:04.196Z,50.90
2022-09-28T07:00:34.435Z,50.00
2022-09-28T07:03:03.407Z,47.70
2022-09-28T07:05:52.854Z,47.20
2022-09-28T07:08:40.837Z,50.80
2022-09-28T07:11:27.250Z,52.00
2022-09-28T07:14:24.651Z,59.20
2022-09-28T07:17:12.633Z,63.40
2022-09-28T07:19:42.730Z,57.20
2022-09-28T07:22:18.572Z,58.00
2022-09-28T07:24:48.520Z,58.70
2022-09-28T07:27:57.845Z,63.80
2022-09-28T07:30:43.158Z,58.00
2022-09-28T07:33:15.959Z,58.90
2022-09-28T07:35:56.637Z,59.30
2022-09-28T07:38:28.157Z,63.00
2022-09-28T07:41:12.131Z,63.30
2022-09-28T07:43:51.082Z,68.50
2022-09-28T07:46:21.903Z,67.80
2022-09-28T07:48:56.992Z,67.00
2022-09-28T07:51:45.018Z,78.80
2022-09-28T07:54:23.924Z,74.30
2022-09-28T07:57:11.713Z,80.10
2022-09-28T07:59:51.166Z,71.60
2022-09-28T08:02:37.572Z,81.20
2022-09-28T08:05:05.635Z,81.90
2022-09-28T08:07:34.563Z,79.20
2022-09-28T08:10:06.106Z,80.50
2022-09-28T08:12:57.975Z,84.10
2022-09-28T08:15:51.600Z,77.50
2022-09-28T08:18:30.909Z,77.00
2022-09-28T08:21:17.176Z,87.20
2022-09-28T08:23:44.653Z,77.20
2022-09-28T08:26:15.375Z,82.00
2022-09-28T08:28:45.209Z,83.70
2022-09-28T08:31:48.499Z,82.50
2022-09-28T08:34:42.414Z,88.30
2022-09-28T08:37:22.692Z,79.30
2022-09-28T08:40:16.716Z,72.10
2022-09-28T08:43:00.121Z,77.50
2022-09-28T08:46:01.212Z,72.30
2022-09-28T08:49:13.432Z,69.70
2022-09-28T08:52:11.374Z,65.80
2022-09-28T08:55:12.756Z,79.20
2022-09-28T08:58:02.219Z,75.10
2022-09-28T09:00:34.337Z,78.40
2022-09-28T09:03:12.146Z,83.40
2022-09-28T09:06:00.606Z,83.80
2022-09-28T09:09:00.351Z,83.60
2022-09-28T09:11:47.144Z,83.00
2022-09-28T09:14:18.571Z,75.10
2022-09-28T09:16:49.818Z,87.80
2022-09-28T09:19:40.691Z,76.10
2022-09-28T09:22:18.202Z,80.90
2022-09-28T09:24:55.621Z,85.40
2022-09-28T09:27:27.941Z,81.30
2022-09-28T09:30:01.815Z,81.00
2022-09-28T09:32:32.477Z,87.80
2022-09-28T09:35:05.791Z,75.60
2022-09-28T09:38:02.186Z,82.90
2022-09-28T09:41:06.775Z,83.30
2022-09-28T09:44:18.958Z,74.60
2022-09-28T09:46:58.206Z,66.00
2022-09-28T09:50:11.710Z,66.20
2022-09-28T09:52:55.999Z,62.50
2022-09-28T09:55:29.988Z,55.00
2022-09-28T09:58:22.366Z,48.60
2022-09-28T10:01:01.607Z,50.40
2022-09-28T10:03:50.039Z,44.10
2022-09-28T10:06:26.771Z,44.90
2022-09-28T10:09:06.536Z,44.60
2022-09-28T10:11:42.661Z,43.30
2022-09-28T10:14:22.414Z,36.70
2022-09-28T10:17:02.388Z,39.90
2022-09-28T10:19:49.021Z,39.20
2022-09-28T10:22:29.015Z,35.70
2022-09-28T10:25:00.129Z,43.40
2022-09-28T10:27:29.911Z,42.40
2022-09-28T10:30:09.635Z,42.20
2022-09-28T10:32:41.698Z,38.20
2022-09-28T10:35:18.844Z,34.60
2022-09-28T10:37:55.345Z,42.60
2022-09-28T10:41:01.419Z,41.70
2022-09-28T10:44:09.068Z,39.30
2022-09-28T10:46:55.709Z,32.60
2022-09-28T10:49:25.173Z,32.80
2022-09-28T10:51:57.367Z,33.40
2022-09-28T10:54:32.808Z,35.30
2022-09-28T10:57:01.478Z,33.50
2022-09-28T10:59:49.408Z,34.10
2022-09-28T11:02:36.808Z,36.10
2022-09-28T11:05:21.434Z,38.80
2022-09-28T11:07:49.691Z,43.60
2022-09-28T11:10:25.211Z,37.40
2022-09-28T11:12:56.095Z,38.00
2022-09-28T11:15:31.543Z,41.10
2022-09-28T11:18:24.714Z,37.90
2022-09-28T11:20:52.621Z,41.40
2022-09-28T11:23:23.078Z,38.80
2022-09-28T11:25:59.505Z,36.00
2022-09-28T11:28:30.307Z,35.60
2022-09-28T11:31:00.567Z,33.40
2022-09-28T11:33:35.194Z,35.70
2022-09-28T11:36:43.402Z,34.60
2022-09-28T11:39:18.453Z,36.00
2022-09-28T11:41:52.230Z,32.10
2022-09-28T11:44:41.832Z,32.60
2022-09-28T11:47:20.059Z,34.90
2022-09-28T11:49:54.729Z,30.50
2022-09-28T11:52:22.592Z,31.40
2022-09-28T11:55:13.490Z,33.60
2022-09-28T11:57:43.110Z,34.00
2022-09-28T12:00:20.167Z,34.20
2022-09-28T12:02:51.621Z,33.00
2022-09-28T12:05:30.473Z,34.60
2022-09-28T12:08:17.401Z,37.20
2022-09-28T12:11:10.322Z,33.70
2022-09-28T12:14:20.581Z,34.70
2022-09-28T12:17:05.907Z,34.30
2022-09-28T12:19:35.384Z,36.50
2022-09-28T12:22:11.868Z,39.10
2022-09-28T12:24:42.636Z,41.70
2022-09-28T12:27:10.058Z,38.80
2022-09-28T12:29:47.835Z,41.20
2022-09-28T12:32:35.907Z,40.50
2022-09-28T12:35:10.990Z,42.80
2022-09-28T12:37:41.865Z,47.30
2022-09-28T12:40:18.772Z,45.20
2022-09-28T12:42:53.427Z,45.00
2022-09-28T12:45:23.916Z,48.70
2022-09-28T12:48:10.604Z,53.00
2022-09-28T12:50:56.090Z,56.90
2022-09-28T12:53:26.167Z,57.80
2022-09-28T12:56:01.205Z,56.70
2022-09-28T12:58:38.160Z,63.50
2022-09-28T13:01:05.971Z,60.40
2022-09-28T13:04:12.779Z,57.80
2022-09-28T13:07:07.076Z,54.40
2022-09-28T13:09:54.724Z,63.60
2022-09-28T13:12:23.164Z,61.40
2022-09-28T13:15:09.663Z,60.90
2022-09-28T13:17:38.286Z,67.50
2022-09-28T13:20:23.399Z,63.70
2022-09-28T13:23:02.585Z,74.20
2022-09-28T13:25:31.512Z,75.60
2022-09-28T13:28:01.469Z,72.60
2022-09-28T13:30:29.393Z,77.80
2022-09-28T13:32:57.862Z,69.60
2022-09-28T13:35:25.805Z,80.90
2022-09-28T13:38:12.482Z,73.50
2022-09-28T13:40:58.853Z,80.60
2022-09-28T13:43:43.401Z,84.00
2022-09-28T13:46:21.004Z,90.70
2022-09-28T13:48:54.410Z,91.50
2022-09-28T13:51:22.518Z,92.30
2022-09-28T13:53:56.116Z,91.00
2022-09-28T13:56:49.226Z,96.80
2022-09-28T13:59:19.891Z,97.50
2022-09-28T14:01:56.189Z,98.50
2022-09-28T14:04:25.739Z,99.70
2022-09-28T14:07:00.052Z,99.90
2022-09-28T14:09:40.701Z,99.10
2022-09-28T14:12:27.210Z,99.90
2022-09-28T14:14:55.150Z,99.90
2022-09-28T14:17:24.297Z,99.90
2022-09-28T14:19:53.341Z,99.90
2022-09-28T14:22:30.071Z,99.90
2022-09-28T14:25:17.829Z,95.40
2022-09-28T14:27:45.452Z,99.90
2022-09-28T14:30:12.793Z,99.90
2022-09-28T14:32:41.535Z,99.90
2022-09-28T14:35:18.873Z,99.90
2022-09-28T14:38:08.104Z,99.90
2022-09-28T14:41:10.343Z,99.90
2022-09-28T14:43:38.119Z,99.90
2022-09-28T14:46:11.909Z,99.90
2022-09-28T14:48:50.185Z,99.90
2022-09-28T14:51:26.983Z,99.90
2022-09-28T14:53:56.803Z,99.90
2022-09-28T14:56:26.162Z,99.90
2022-09-28T14:58:58.081Z,99.90
2022-09-28T15:01:26.066Z,99.90
2022-09-28T15:03:55.965Z,99.90
2022-09-28T15:06:24.436Z,99.90
2022-09-28T15:08:52.309Z,99.90
2022-09-28T15:11:24.543Z,99.90
2022-09-28T15:14:04.795Z,99.90
2022-09-28T15:16:32.650Z,99.90
2022-09-28T15:19:19.763Z,99.90
2022-09-28T15:21:49.190Z,99.90
2022-09-28T15:24:31.897Z,99.90
2022-09-28T15:27:00.235Z,99.90
2022-09-28T15:29:34.349Z,99.90
2022-09-28T15:32:02.104Z,99.90
2022-09-28T15:34:54.787Z,99.90
2022-09-28T15:37:28.351Z,99.90
2022-09-28T15:39:56.994Z,99.90
2022-09-28T15:42:25.382Z,99.90
2022-09-28T15:45:17.150Z,99.90
2022-09-28T15:47:45.380Z,99.90
2022-09-28T15:50:19.262Z,99.90
2022-09-28T15:53:04.395Z,99.90
2022-09-28T15:55:33.837Z,99.90
2022-09-28T15:58:18.258Z,99.90
2022-09-28T16:00:46.854Z,99.90
2022-09-28T16:03:17.196Z,99.90
2022-09-28T16:05:50.019Z,99.90
2022-09-28T16:08:24.293Z,99.90
2022-09-28T16:10:54.424Z,99.90
2022-09-28T16:13:24.068Z,99.90
2022-09-28T16:15:58.504Z,99.90
2022-09-28T16:18:26.865Z,99.90
2022-09-28T16:21:09.909Z,99.90
2022-09-28T16:23:37.812Z,99.90
2022-09-28T16:26:15.125Z,99.90
2022-09-28T16:28:46.225Z,99.90
2022-09-28T16:31:14.215Z,99.90
2022-09-28T16:33:55.445Z,99.90
2022-09-28T16:36:23.126Z,99.90
2022-09-28T16:38:51.101Z,99.90
2022-09-28T16:41:23.520Z,99.90
2022-09-28T16:43:55.775Z,99.90
2022-09-28T16:46:25.463Z,99.90
2022-09-28T16:48:54.143Z,99.90
2022-09-28T16:51:22.819Z,99.90
2022-09-28T16:54:09.244Z,99.90
2022-09-28T16:56:37.198Z,99.90
2022-09-28T16:59:04.901Z,99.90
2022-09-28T17:01:33.512Z,99.90
2022-09-28T17:04:01.070Z,99.90
2022-09-28T17:06:28.996Z,99.90
2022-09-28T17:08:59.592Z,99.90
2022-09-28T17:11:27.298Z,99.90
2022-09-28T17:13:59.209Z,99.90
2022-09-28T17:16:57.326Z,99.90
2022-09-28T17:19:18.574Z,99.90
2022-09-28T17:21:47.582Z,99.90
2022-09-28T17:24:15.633Z,99.90
2022-09-28T17:26:45.833Z,99.90
2022-09-28T17:29:14.974Z,99.90
2022-09-28T17:31:43.674Z,99.90
2022-09-28T17:34:12.461Z,99.90
2022-09-28T17:36:41.895Z,99.90
2022-09-28T17:39:11.767Z,99.90
2022-09-28T17:41:40.428Z,99.90
2022-09-28T17:44:08.446Z,99.90
2022-09-28T17:46:46.045Z,99.90
2022-09-28T17:49:14.295Z,99.90
2022-09-28T17:51:42.089Z,99.90
2022-09-28T17:54:09.895Z,99.90
2022-09-28T17:56:37.994Z,99.90
2022-09-28T17:59:07.517Z,99.90
2022-09-28T18:01:38.429Z,99.90
2022-09-28T18:04:08.482Z,99.90
2022-09-28T18:06:37.570Z,99.90
2022-09-28T18:09:06.260Z,99.90
2022-09-28T18:11:34.728Z,99.90
2022-09-28T18:14:02.570Z,99.90
2022-09-28T18:16:31.720Z,99.90
2022-09-28T18:19:00.064Z,99.90
2022-09-28T18:21:28.479Z,99.90
2022-09-28T18:23:55.883Z,99.90
2022-09-28T18:26:23.779Z,99.90
2022-09-28T18:28:54.809Z,99.90
2022-09-28T18:31:22.714Z,99.90
2022-09-28T18:33:50.417Z,99.90
2022-09-28T18:36:18.246Z,99.90
2022-09-28T18:38:46.240Z,99.90
2022-09-28T18:41:16.140Z,99.90
2022-09-28T18:43:49.222Z,99.90
2022-09-28T18:46:20.613Z,99.90
2022-09-28T18:48:48.893Z,99.90
2022-09-28T18:51:16.773Z,99.90
2022-09-28T18:53:44.708Z,99.90
2022-09-28T18:56:13.459Z,99.90
2022-09-28T18:58:41.819Z,99.90
2022-09-28T19:01:29.058Z,99.90
2022-09-28T19:04:02.257Z,99.90
2022-09-28T19:06:32.414Z,99.90
2022-09-28T19:09:01.618Z,99.90
2022-09-28T19:11:29.340Z,99.90
2022-09-28T19:13:56.975Z,99.90
2022-09-28T19:16:26.434Z,99.90
2022-09-28T19:18:54.341Z,99.90
2022-09-28T19:21:21.899Z,99.90
2022-09-28T19:23:50.183Z,99.90
2022-09-28T19:26:18.984Z,99.90
2022-09-28T19:28:46.895Z,99.90
2022-09-28T19:31:14.551Z,99.90
2022-09-28T19:33:44.971Z,99.90
2022-09-28T19:36:13.859Z,99.90
2022-09-28T19:38:42.489Z,99.90
2022-09-28T19:41:36.609Z,99.90
2022-09-28T19:44:08.985Z,99.90
2022-09-28T19:46:38.438Z,99.90
2022-09-28T19:49:10.953Z,99.90
2022-09-28T19:51:46.965Z,99.90
2022-09-28T19:54:33.092Z,99.90
2022-09-28T19:57:08.227Z,99.90
2022-09-28T19:59:36.778Z,99.90
2022-09-28T20:02:08.685Z,99.90
2022-09-28T20:04:36.484Z,99.90
2022-09-28T20:07:05.798Z,99.90
2022-09-28T20:09:33.464Z,99.90
2022-09-28T20:12:01.590Z,99.90
2022-09-28T20:14:33.048Z,99.90
2022-09-28T20:17:04.210Z,99.90
2022-09-28T20:19:31.681Z,99.90
2022-09-28T20:22:03.434Z,99.90
2022-09-28T20:24:31.645Z,99.90
2022-09-28T20:26:59.258Z,99.90
2022-09-28T20:29:26.863Z,99.90
2022-09-28T20:31:54.308Z,99.90
2022-09-28T20:34:21.758Z,99.90
2022-09-28T20:36:49.251Z,99.90
2022-09-28T20:39:17.266Z,99.90
2022-09-28T20:41:46.373Z,99.90
2022-09-28T20:44:14.335Z,99.90
2022-09-28T20:46:43.958Z,99.90
2022-09-28T20:49:11.549Z,99.90
2022-09-28T20:51:39.330Z,99.90
2022-09-28T20:54:07.251Z,99.90
2022-09-28T20:56:38.527Z,99.90
2022-09-28T20:59:10.664Z,99.90
2022-09-28T21:01:38.212Z,99.90
2022-09-28T21:04:07.059Z,99.90
2022-09-28T21:06:35.850Z,99.90
2022-09-28T21:09:04.247Z,99.90
2022-09-28T21:11:32.547Z,99.90
2022-09-28T21:14:02.186Z,99.90
2022-09-28T21:16:31.454Z,99.90
2022-09-28T21:18:59.382Z,99.90
2022-09-28T21:21:27.145Z,99.90
2022-09-28T21:23:58.063Z,99.90
2022-09-28T21:26:27.031Z,99.90
2022-09-28T21:28:58.402Z,99.90
2022-09-28T21:31:29.205Z,99.90
2022-09-28T21:33:57.448Z,99.90
2022-09-28T21:36:25.218Z,99.90
2022-09-28T21:38:53.956Z,99.90
2022-09-28T21:41:21.466Z,99.90
2022-09-28T21:43:49.072Z,99.90
2022-09-28T21:46:17.815Z,99.90
2022-09-28T21:48:45.899Z,99.90
2022-09-28T21:51:14.401Z,99.90
2022-09-28T21:53:43.028Z,99.90
2022-09-28T21:56:11.973Z,99.90
2022-09-28T21:58:40.345Z,99.90
2022-09-28T22:01:15.957Z,99.90
2022-09-28T22:03:47.620Z,99.90
2022-09-28T22:06:15.639Z,99.90
2022-09-28T22:08:43.094Z,99.90
2022-09-28T22:11:12.345Z,99.90
2022-09-28T22:13:41.349Z,99.90
2022-09-28T22:16:09.748Z,99.90
2022-09-28T22:18:37.330Z,99.90
2022-09-28T22:21:10.067Z,99.90
2022-09-28T22:23:38.229Z,99.90
2022-09-28T22:26:10.946Z,99.90
2022-09-28T22:28:39.323Z,99.90
2022-09-28T22:31:07.020Z,99.90
2022-09-28T22:33:34.665Z,99.90
2022-09-28T22:36:02.079Z,99.90
2022-09-28T22:38:31.161Z,99.90
2022-09-28T22:40:58.551Z,99.90
2022-09-28T22:43:27.089Z,99.90
2022-09-28T22:46:05.433Z,99.90
2022-09-28T22:48:33.151Z,99.90
2022-09-28T22:51:01.030Z,99.90
2022-09-28T22:53:28.813Z,99.90
2022-09-28T22:55:56.818Z,99.90
2022-09-28T22:58:24.408Z,99.90
2022-09-28T23:00:52.129Z,99.90
2022-09-28T23:03:19.471Z,99.90
2022-09-28T23:05:54.597Z,99.90
2022-09-28T23:08:22.704Z,99.90
2022-09-28T23:10:50.560Z,99.90
2022-09-28T23:13:18.796Z,99.90
2022-09-28T23:15:59.940Z,99.90
2022-09-28T23:18:28.590Z,99.90
2022-09-28T23:20:56.744Z,99.90
2022-09-28T23:23:24.272Z,99.90
2022-09-28T23:25:52.409Z,99.90
2022-09-28T23:28:20.917Z,99.90
2022-09-28T23:30:48.897Z,99.90
2022-09-28T23:33:16.972Z,99.90
2022-09-28T23:35:44.965Z,99.90
2022-09-28T23:38:17.982Z,99.90
2022-09-28T23:40:46.733Z,99.90
2022-09-28T23:43:14.663Z,99.90
2022-09-28T23:45:45.770Z,99.90
2022-09-28T23:48:15.378Z,99.90
2022-09-28T23:50:43.942Z,99.90
2022-09-28T23:53:12.309Z,99.90
2022-09-28T23:55:39.987Z,99.90
2022-09-28T23:58:07.609Z,99.90
